createdAt,value
2018-02-07T00:01:43.759Z,95532.16
2018-02-07T00:04:11.685Z,95527.97
2018-02-07T00:06:39.271Z,95519.16
2018-02-07T00:09:07.054Z,95526.36
2018-02-07T00:11:34.731Z,95524.34
2018-02-07T00:14:02.365Z,95520.98
2018-02-07T00:16:29.938Z,95526.06
2018-02-07T00:18:57.557Z,95516.92
2018-02-07T00:21:25.116Z,95514.89
2018-02-07T00:23:52.706Z,95515.62
2018-02-07T00:26:20.632Z,95520.13
2018-02-07T00:28:48.218Z,95520.06
2018-02-07T00:31:16.387Z,95520.15
2018-02-07T00:33:43.968Z,95521.77
2018-02-07T00:36:11.723Z,95521.77
2018-02-07T00:38:39.340Z,95516.45
2018-02-07T00:41:07.066Z,95517.77
2018-02-07T00:43:34.651Z,95511.08
2018-02-07T00:46:02.296Z,95513.07
2018-02-07T00:48:30.011Z,95512.27
2018-02-07T00:50:57.601Z,95508.84
2018-02-07T00:53:25.750Z,95509.55
2018-02-07T00:55:53.380Z,95506.55
2018-02-07T00:58:20.967Z,95510.37
2018-02-07T01:00:48.579Z,95509.19
2018-02-07T01:03:16.764Z,95506.25
2018-02-07T01:05:44.313Z,95508.62
2018-02-07T01:08:11.880Z,95500.62
2018-02-07T01:10:39.503Z,95500.97
2018-02-07T01:13:07.501Z,95521.55
2018-02-07T01:15:35.069Z,95511.70
2018-02-07T01:18:02.717Z,95516.30
2018-02-07T01:20:30.279Z,95516.18
2018-02-07T01:22:57.840Z,95512.06
2018-02-07T01:25:25.517Z,95507.37
2018-02-07T01:27:53.066Z,95508.62
2018-02-07T01:30:20.660Z,95504.02
2018-02-07T01:32:48.237Z,95498.67
2018-02-07T01:35:15.817Z,95502.98
2018-02-07T01:37:43.405Z,95501.31
2018-02-07T01:40:10.980Z,95504.03
2018-02-07T01:42:38.578Z,95506.63
2018-02-07T01:45:06.176Z,95486.73
2018-02-07T01:47:33.839Z,95510.95
2018-02-07T01:50:01.581Z,95504.81
2018-02-07T01:52:29.122Z,95499.16
2018-02-07T01:54:56.693Z,95499.84
2018-02-07T01:57:24.309Z,95500.83
2018-02-07T01:59:51.909Z,95500.62
2018-02-07T02:02:19.475Z,95494.39
2018-02-07T02:04:47.117Z,95491.33
2018-02-07T02:07:14.692Z,95488.20
2018-02-07T02:09:42.323Z,95481.34
2018-02-07T02:12:09.935Z,95465.30
2018-02-07T02:14:37.495Z,95464.76
2018-02-07T02:17:05.140Z,95463.45
2018-02-07T02:19:32.788Z,95460.08
2018-02-07T02:22:00.364Z,95457.94
2018-02-07T02:24:28.004Z,95448.58
2018-02-07T02:26:55.569Z,95447.47
2018-02-07T02:29:23.172Z,95451.30
2018-02-07T02:31:50.971Z,95449.16
2018-02-07T02:34:18.552Z,95446.98
2018-02-07T02:36:46.131Z,95450.53
2018-02-07T02:39:13.794Z,95451.17
2018-02-07T02:41:41.367Z,95449.70
2018-02-07T02:44:09.035Z,95450.06
2018-02-07T02:46:36.631Z,95452.06
2018-02-07T02:49:04.674Z,95452.92
2018-02-07T02:51:32.788Z,95452.56
2018-02-07T02:54:00.376Z,95442.86
2018-02-07T02:56:27.959Z,95451.16
2018-02-07T02:58:55.559Z,95445.30
2018-02-07T03:01:23.135Z,95449.68
2018-02-07T03:03:50.717Z,95451.66
2018-02-07T03:06:18.293Z,95450.94
2018-02-07T03:08:46.879Z,95451.52
2018-02-07T03:11:14.731Z,95452.89
2018-02-07T03:13:42.544Z,95452.95
2018-02-07T03:16:10.153Z,95442.70
2018-02-07T03:18:37.802Z,95448.42
2018-02-07T03:21:05.447Z,95437.91
2018-02-07T03:23:33.018Z,95439.00
2018-02-07T03:26:00.603Z,95435.93
2018-02-07T03:28:28.166Z,95425.86
2018-02-07T03:30:56.601Z,95427.02
2018-02-07T03:33:24.326Z,95432.11
2018-02-07T03:35:51.922Z,95426.52
2018-02-07T03:38:19.591Z,95419.81
2018-02-07T03:40:47.190Z,95423.70
2018-02-07T03:43:15.152Z,95420.41
2018-02-07T03:45:42.713Z,95426.57
2018-02-07T03:48:12.406Z,95419.14
2018-02-07T03:50:40.526Z,95414.25
2018-02-07T03:53:08.689Z,95416.88
2018-02-07T03:55:36.321Z,95418.39
2018-02-07T03:58:03.892Z,95421.04
2018-02-07T04:00:31.513Z,95422.34
2018-02-07T04:02:59.095Z,95417.53
2018-02-07T04:05:26.661Z,95427.30
2018-02-07T04:07:54.214Z,95424.59
2018-02-07T04:10:21.826Z,95421.22
2018-02-07T04:12:49.408Z,95429.47
2018-02-07T04:15:16.971Z,95423.06
2018-02-07T04:17:44.574Z,95417.28
2018-02-07T04:20:12.368Z,95410.50
2018-02-07T04:22:39.955Z,95408.56
2018-02-07T04:25:07.565Z,95406.38
2018-02-07T04:27:35.174Z,95403.43
2018-02-07T04:30:02.738Z,95395.76
2018-02-07T04:32:30.336Z,95389.75
2018-02-07T04:34:57.959Z,95384.56
2018-02-07T04:37:25.520Z,95383.72
2018-02-07T04:39:53.148Z,95377.22
2018-02-07T04:42:20.757Z,95376.84
2018-02-07T04:44:51.976Z,95376.56
2018-02-07T04:47:19.782Z,95374.14
2018-02-07T04:49:47.452Z,95367.69
2018-02-07T04:52:15.074Z,95366.11
2018-02-07T04:54:42.773Z,95363.16
2018-02-07T04:57:11.502Z,95366.00
2018-02-07T04:59:39.144Z,95369.90
2018-02-07T05:02:06.745Z,95359.34
2018-02-07T05:04:34.304Z,95369.00
2018-02-07T05:07:01.894Z,95381.53
2018-02-07T05:09:29.505Z,95367.42
2018-02-07T05:11:57.081Z,95375.47
2018-02-07T05:14:24.702Z,95367.77
2018-02-07T05:16:52.299Z,95363.48
2018-02-07T05:19:19.851Z,95373.63
2018-02-07T05:21:47.550Z,95364.33
2018-02-07T05:24:15.148Z,95367.45
2018-02-07T05:26:42.767Z,95371.29
2018-02-07T05:29:11.012Z,95379.25
2018-02-07T05:31:38.601Z,95375.22
2018-02-07T05:34:06.296Z,95379.50
2018-02-07T05:36:33.884Z,95381.88
2018-02-07T05:39:01.460Z,95388.18
2018-02-07T05:41:29.526Z,95383.21
2018-02-07T05:43:57.073Z,95376.44
2018-02-07T05:46:24.672Z,95381.66
2018-02-07T05:48:52.233Z,95385.35
2018-02-07T05:51:19.801Z,95386.30
2018-02-07T05:53:47.357Z,95391.78
2018-02-07T05:56:14.944Z,95391.86
2018-02-07T05:58:42.558Z,95403.23
2018-02-07T06:01:10.144Z,95403.77
2018-02-07T06:03:38.116Z,95409.39
2018-02-07T06:06:05.704Z,95413.66
2018-02-07T06:08:33.271Z,95422.98
2018-02-07T06:11:00.849Z,95419.55
2018-02-07T06:13:28.816Z,95418.31
2018-02-07T06:15:56.977Z,95413.45
2018-02-07T06:18:24.654Z,95414.09
2018-02-07T06:20:52.285Z,95404.84
2018-02-07T06:23:19.912Z,95418.20
2018-02-07T06:25:47.488Z,95426.38
2018-02-07T06:28:15.132Z,95422.01
2018-02-07T06:30:42.788Z,95426.13
2018-02-07T06:33:11.006Z,95425.27
2018-02-07T06:35:38.713Z,95429.80
2018-02-07T06:38:06.269Z,95428.38
2018-02-07T06:40:34.835Z,95425.71
2018-02-07T06:43:02.466Z,95422.60
2018-02-07T06:45:30.105Z,95432.55
2018-02-07T06:47:57.677Z,95440.91
2018-02-07T06:50:25.276Z,95435.69
2018-02-07T06:52:52.874Z,95438.97
2018-02-07T06:55:20.440Z,95444.42
2018-02-07T06:57:48.027Z,95450.11
2018-02-07T07:00:15.600Z,95446.73
2018-02-07T07:02:43.170Z,95451.64
2018-02-07T07:05:11.054Z,95449.89
2018-02-07T07:07:39.818Z,95455.34
2018-02-07T07:10:07.442Z,95452.91
2018-02-07T07:12:35.033Z,95458.10
2018-02-07T07:15:04.615Z,95450.52
2018-02-07T07:17:32.197Z,95447.45
2018-02-07T07:19:59.769Z,95447.00
2018-02-07T07:22:27.342Z,95453.98
2018-02-07T07:24:54.942Z,95451.30
2018-02-07T07:27:23.008Z,95459.58
2018-02-07T07:29:52.530Z,95458.75
2018-02-07T07:32:20.160Z,95458.06
2018-02-07T07:34:49.295Z,95466.73
2018-02-07T07:37:17.007Z,95464.38
2018-02-07T07:39:44.593Z,95471.50
2018-02-07T07:42:14.449Z,95471.52
2018-02-07T07:44:42.058Z,95473.28
2018-02-07T07:47:10.493Z,95473.64
2018-02-07T07:49:38.866Z,95473.82
2018-02-07T07:52:06.495Z,95473.23
2018-02-07T07:54:34.095Z,95470.66
2018-02-07T07:57:01.757Z,95471.19
2018-02-07T07:59:29.367Z,95466.34
2018-02-07T08:01:56.942Z,95464.88
2018-02-07T08:04:24.566Z,95458.58
2018-02-07T08:06:52.148Z,95456.14
2018-02-07T08:09:19.741Z,95452.02
2018-02-07T08:11:47.304Z,95446.76
2018-02-07T08:14:14.997Z,95445.16
2018-02-07T08:16:42.610Z,95447.30
2018-02-07T08:19:10.670Z,95446.70
2018-02-07T08:21:38.266Z,95443.11
2018-02-07T08:24:05.864Z,95443.63
2018-02-07T08:26:33.439Z,95441.77
2018-02-07T08:29:01.006Z,95439.76
2018-02-07T08:31:31.154Z,95445.71
2018-02-07T08:33:58.717Z,95441.77
2018-02-07T08:36:26.313Z,95437.80
2018-02-07T08:38:53.905Z,95437.58
2018-02-07T08:41:21.774Z,95440.63
2018-02-07T08:43:49.344Z,95440.14
2018-02-07T08:46:16.942Z,95443.81
2018-02-07T08:48:44.503Z,95443.81
2018-02-07T08:51:12.209Z,95436.11
2018-02-07T08:53:39.805Z,95434.16
2018-02-07T08:56:07.400Z,95434.95
2018-02-07T08:58:35.017Z,95432.61
2018-02-07T09:01:02.628Z,95434.72
2018-02-07T09:03:30.504Z,95432.50
2018-02-07T09:05:58.225Z,95436.97
2018-02-07T09:08:25.859Z,95445.20
2018-02-07T09:10:53.454Z,95437.16
2018-02-07T09:13:21.088Z,95444.31
2018-02-07T09:15:48.687Z,95445.38
2018-02-07T09:18:16.282Z,95444.53
2018-02-07T09:20:43.963Z,95440.33
2018-02-07T09:23:11.951Z,95446.86
2018-02-07T09:25:39.516Z,95443.73
2018-02-07T09:28:07.113Z,95445.63
2018-02-07T09:30:34.694Z,95447.98
2018-02-07T09:33:02.285Z,95455.00
2018-02-07T09:35:29.913Z,95454.78
2018-02-07T09:37:57.511Z,95449.97
2018-02-07T09:40:25.124Z,95442.48
2018-02-07T09:42:52.721Z,95449.56
2018-02-07T09:45:20.307Z,95450.65
2018-02-07T09:47:47.873Z,95447.31
2018-02-07T09:50:15.477Z,95440.47
2018-02-07T09:52:43.129Z,95439.03
2018-02-07T09:55:10.923Z,95436.47
2018-02-07T09:57:38.514Z,95434.87
2018-02-07T10:00:06.244Z,95409.73
2018-02-07T10:02:33.787Z,95427.74
2018-02-07T10:05:01.386Z,95425.58
2018-02-07T10:07:28.968Z,95428.00
2018-02-07T10:09:56.524Z,95432.30
2018-02-07T10:12:24.672Z,95432.92
2018-02-07T10:14:52.233Z,95427.17
2018-02-07T10:17:19.822Z,95420.04
2018-02-07T10:19:47.458Z,95424.36
2018-02-07T10:22:15.057Z,95423.14
2018-02-07T10:24:42.649Z,95411.77
2018-02-07T10:27:10.673Z,95415.08
2018-02-07T10:29:38.263Z,95407.52
2018-02-07T10:32:05.840Z,95417.56
2018-02-07T10:34:33.425Z,95420.01
2018-02-07T10:37:01.011Z,95418.50
2018-02-07T10:39:28.920Z,95417.92
2018-02-07T10:41:56.979Z,95408.00
2018-02-07T10:44:24.562Z,95413.81
2018-02-07T10:46:52.122Z,95403.77
2018-02-07T10:49:19.797Z,95405.63
2018-02-07T10:51:47.429Z,95415.20
2018-02-07T10:54:15.055Z,95410.78
2018-02-07T10:56:42.629Z,95405.00
2018-02-07T10:59:10.203Z,95397.45
2018-02-07T11:01:45.641Z,95398.24
2018-02-07T11:04:13.754Z,95396.04
2018-02-07T11:06:41.346Z,95397.91
2018-02-07T11:09:08.955Z,95401.85
2018-02-07T11:11:38.559Z,95395.20
2018-02-07T11:14:06.240Z,95395.56
2018-02-07T11:16:33.892Z,95391.39
2018-02-07T11:19:02.518Z,95399.80
2018-02-07T11:21:30.092Z,95391.36
2018-02-07T11:23:57.732Z,95394.04
2018-02-07T11:26:25.746Z,95395.14
2018-02-07T11:28:53.417Z,95395.71
2018-02-07T11:31:21.008Z,95400.22
2018-02-07T11:33:48.597Z,95403.09
2018-02-07T11:36:16.176Z,95390.91
2018-02-07T11:38:43.818Z,95391.41
2018-02-07T11:41:11.648Z,95385.55
2018-02-07T11:43:39.278Z,95385.77
2018-02-07T11:46:06.900Z,95378.13
2018-02-07T11:48:34.494Z,95381.14
2018-02-07T11:51:02.075Z,95374.00
2018-02-07T11:53:29.813Z,95377.77
2018-02-07T11:55:57.394Z,95385.90
2018-02-07T11:58:24.958Z,95382.00
2018-02-07T12:00:52.611Z,95381.00
2018-02-07T12:03:20.441Z,95375.34
2018-02-07T12:05:48.127Z,95376.77
2018-02-07T12:08:15.879Z,95377.45
2018-02-07T12:10:43.512Z,95382.55
2018-02-07T12:13:11.855Z,95377.11
2018-02-07T12:15:39.495Z,95382.68
2018-02-07T12:18:07.129Z,95369.67
2018-02-07T12:20:34.919Z,95374.08
2018-02-07T12:23:02.567Z,95368.12
2018-02-07T12:25:30.165Z,95371.95
2018-02-07T12:27:57.759Z,95371.44
2018-02-07T12:30:25.390Z,95380.11
2018-02-07T12:32:53.007Z,95374.13
2018-02-07T12:35:20.604Z,95369.88
2018-02-07T12:37:48.232Z,95362.22
2018-02-07T12:40:15.802Z,95373.06
2018-02-07T12:42:43.385Z,95374.48
2018-02-07T12:45:11.691Z,95377.30
2018-02-07T12:47:39.282Z,95385.28
2018-02-07T12:50:06.887Z,95383.71
2018-02-07T12:52:34.525Z,95388.76
2018-02-07T12:55:02.097Z,95386.33
2018-02-07T12:57:30.655Z,95387.83
2018-02-07T12:59:58.273Z,95388.08
2018-02-07T13:02:26.926Z,95386.00
2018-02-07T13:04:54.512Z,95381.99
2018-02-07T13:07:22.219Z,95378.26
2018-02-07T13:09:51.213Z,95376.59
2018-02-07T13:12:18.801Z,95375.00
2018-02-07T13:14:46.408Z,95373.00
2018-02-07T13:17:14.175Z,95380.48
2018-02-07T13:19:41.741Z,95376.34
2018-02-07T13:22:09.482Z,95379.12
2018-02-07T13:24:37.126Z,95369.59
2018-02-07T13:27:05.755Z,95367.26
2018-02-07T13:29:33.406Z,95365.11
2018-02-07T13:32:00.987Z,95372.14
2018-02-07T13:34:29.349Z,95369.43
2018-02-07T13:36:57.299Z,95369.17
2018-02-07T13:39:25.000Z,95366.03
2018-02-07T13:41:52.626Z,95372.20
2018-02-07T13:44:20.224Z,95374.70
2018-02-07T13:46:48.388Z,95370.64
2018-02-07T13:49:16.089Z,95361.13
2018-02-07T13:51:43.665Z,95376.14
2018-02-07T13:54:11.250Z,95379.34
2018-02-07T13:56:38.928Z,95381.09
2018-02-07T13:59:06.499Z,95384.98
2018-02-07T14:01:34.428Z,95380.16
2018-02-07T14:04:02.006Z,95379.09
2018-02-07T14:06:29.578Z,95376.73
2018-02-07T14:08:57.258Z,95383.31
2018-02-07T14:11:26.033Z,95375.49
2018-02-07T14:13:53.667Z,95374.03
2018-02-07T14:16:21.298Z,95373.70
2018-02-07T14:18:49.128Z,95377.23
2018-02-07T14:21:17.137Z,95378.11
2018-02-07T14:23:44.930Z,95380.38
2018-02-07T14:26:12.711Z,95382.33
2018-02-07T14:28:40.577Z,95378.89
2018-02-07T14:31:08.767Z,95377.58
2018-02-07T14:33:36.542Z,95379.91
2018-02-07T14:36:04.487Z,95387.09
2018-02-07T14:38:32.101Z,95381.56
2018-02-07T14:40:59.733Z,95380.40
2018-02-07T14:43:28.077Z,95376.90
2018-02-07T14:45:55.684Z,95377.23
2018-02-07T14:48:23.292Z,95373.80
2018-02-07T14:50:50.881Z,95377.04
2018-02-07T14:53:18.482Z,95383.92
2018-02-07T14:55:46.972Z,95388.27
2018-02-07T14:58:14.903Z,95388.09
2018-02-07T15:00:42.493Z,95396.03
2018-02-07T15:03:10.689Z,95401.98
2018-02-07T15:05:38.324Z,95402.62
2018-02-07T15:08:05.928Z,95401.90
2018-02-07T15:10:35.157Z,95407.44
2018-02-07T15:13:05.918Z,95407.03
2018-02-07T15:15:33.838Z,95406.42
2018-02-07T15:18:04.972Z,95403.62
2018-02-07T15:20:39.306Z,95414.45
2018-02-07T15:23:09.688Z,95417.77
2018-02-07T15:25:37.792Z,95413.76
2018-02-07T15:28:05.368Z,95413.34
2018-02-07T15:30:33.002Z,95424.69
2018-02-07T15:33:00.626Z,95423.84
2018-02-07T15:35:29.594Z,95424.11
2018-02-07T15:37:58.925Z,95427.55
2018-02-07T15:40:26.594Z,95431.48
2018-02-07T15:42:54.273Z,95437.68
2018-02-07T15:45:21.843Z,95445.34
2018-02-07T15:47:49.489Z,95456.06
2018-02-07T15:50:17.125Z,95460.63
2018-02-07T15:52:46.300Z,95456.05
2018-02-07T15:55:14.384Z,95462.41
2018-02-07T15:57:43.907Z,95461.61
2018-02-07T16:00:11.594Z,95460.41
2018-02-07T16:02:39.176Z,95455.83
2018-02-07T16:05:07.406Z,95466.78
2018-02-07T16:07:35.039Z,95471.42
2018-02-07T16:10:02.670Z,95473.94
2018-02-07T16:12:30.309Z,95467.63
2018-02-07T16:14:57.959Z,95469.83
2018-02-07T16:17:26.789Z,95465.95
2018-02-07T16:19:54.358Z,95478.70
2018-02-07T16:22:21.966Z,95481.22
2018-02-07T16:24:49.614Z,95476.36
2018-02-07T16:27:17.565Z,95478.05
2018-02-07T16:29:45.133Z,95471.16
2018-02-07T16:32:12.806Z,95479.20
2018-02-07T16:34:40.417Z,95482.78
2018-02-07T16:37:08.143Z,95481.27
2018-02-07T16:39:36.106Z,95479.42
2018-02-07T16:42:03.678Z,95482.64
2018-02-07T16:44:31.338Z,95484.16
2018-02-07T16:46:59.013Z,95479.69
2018-02-07T16:49:27.259Z,95474.84
2018-02-07T16:51:54.852Z,95474.31
2018-02-07T16:54:25.519Z,95474.82
2018-02-07T16:56:53.325Z,95467.88
2018-02-07T16:59:22.185Z,95475.33
2018-02-07T17:01:50.044Z,95483.05
2018-02-07T17:04:17.678Z,95476.59
2018-02-07T17:06:45.356Z,95479.11
2018-02-07T17:09:12.992Z,95477.34
2018-02-07T17:11:40.631Z,95471.78
2018-02-07T17:14:08.237Z,95472.02
2018-02-07T17:16:35.970Z,95480.84
2018-02-07T17:19:03.607Z,95482.54
2018-02-07T17:21:32.135Z,95476.39
2018-02-07T17:23:59.807Z,95489.25
2018-02-07T17:26:27.821Z,95495.97
2018-02-07T17:28:55.405Z,95504.57
2018-02-07T17:31:22.990Z,95508.14
2018-02-07T17:33:50.583Z,95514.13
2018-02-07T17:38:50.227Z,95519.70
2018-02-07T17:44:08.406Z,95523.86
2018-02-07T17:46:36.004Z,95529.13
2018-02-07T17:49:03.585Z,95537.70
2018-02-07T17:51:31.237Z,95535.09
2018-02-07T17:53:59.820Z,95541.81
2018-02-07T17:56:27.406Z,95543.07
2018-02-07T17:58:55.022Z,95556.41
2018-02-07T18:01:22.664Z,95555.38
2018-02-07T18:03:50.258Z,95560.35
2018-02-07T18:06:17.829Z,95561.30
2018-02-07T18:08:45.536Z,95553.09
2018-02-07T18:11:13.840Z,95553.88
2018-02-07T18:13:41.460Z,95550.83
2018-02-07T18:16:09.358Z,95558.48
2018-02-07T18:18:36.971Z,95564.09
2018-02-07T18:21:04.596Z,95560.05
2018-02-07T18:23:32.521Z,95567.86
2018-02-07T18:26:00.182Z,95564.88
2018-02-07T18:28:27.810Z,95565.19
2018-02-07T18:30:55.405Z,95565.03
2018-02-07T18:33:23.944Z,95569.70
2018-02-07T18:35:51.493Z,95573.19
2018-02-07T18:38:19.077Z,95574.28
2018-02-07T18:40:46.793Z,95577.75
2018-02-07T18:43:14.398Z,95583.75
2018-02-07T18:45:42.033Z,95575.52
2018-02-07T18:48:09.720Z,95580.31
2018-02-07T18:53:09.016Z,95592.83
2018-02-07T18:55:36.650Z,95589.59
2018-02-07T18:58:04.282Z,95590.89
2018-02-07T19:00:31.889Z,95589.27
2018-02-07T19:02:59.895Z,95585.66
2018-02-07T19:05:27.677Z,95584.89
2018-02-07T19:07:56.825Z,95589.24
2018-02-07T19:10:24.438Z,95580.76
2018-02-07T19:12:52.012Z,95586.01
2018-02-07T19:15:21.392Z,95589.64
2018-02-07T19:17:49.022Z,95592.05
2018-02-07T19:20:16.650Z,95598.91
2018-02-07T19:22:44.226Z,95600.60
2018-02-07T19:25:12.255Z,95595.49
2018-02-07T19:27:39.850Z,95594.47
2018-02-07T19:30:07.417Z,95599.69
2018-02-07T19:32:35.164Z,95598.52
2018-02-07T19:35:02.741Z,95604.20
2018-02-07T19:37:30.362Z,95606.97
2018-02-07T19:39:57.964Z,95608.59
2018-02-07T19:42:27.256Z,95615.09
2018-02-07T19:44:55.162Z,95614.74
2018-02-07T19:47:25.086Z,95616.11
2018-02-07T19:49:55.891Z,95618.20
2018-02-07T19:52:24.850Z,95610.53
2018-02-07T19:54:52.565Z,95629.94
2018-02-07T19:57:20.332Z,95628.27
2018-02-07T19:59:47.928Z,95636.03
2018-02-07T20:02:15.614Z,95635.86
2018-02-07T20:04:43.229Z,95642.77
2018-02-07T20:07:11.659Z,95637.83
2018-02-07T20:09:39.306Z,95640.83
2018-02-07T20:12:06.974Z,95647.36
2018-02-07T20:14:34.603Z,95652.47
2018-02-07T20:17:02.232Z,95652.89
2018-02-07T20:19:31.329Z,95649.04
2018-02-07T20:21:59.037Z,95647.56
2018-02-07T20:24:26.630Z,95653.84
2018-02-07T20:26:54.218Z,95651.39
2018-02-07T20:29:22.610Z,95648.61
2018-02-07T20:31:50.197Z,95651.27
2018-02-07T20:34:17.848Z,95658.19
2018-02-07T20:36:45.465Z,95655.20
2018-02-07T20:39:15.818Z,95662.92
2018-02-07T20:41:43.494Z,95658.92
2018-02-07T20:44:11.089Z,95659.21
2018-02-07T20:49:33.017Z,95666.34
2018-02-07T20:52:00.614Z,95667.25
2018-02-07T20:54:28.234Z,95664.86
2018-02-07T20:56:55.898Z,95665.23
2018-02-07T20:59:24.414Z,95666.55
2018-02-07T21:01:52.863Z,95668.14
2018-02-07T21:04:22.065Z,95669.30
2018-02-07T21:06:49.730Z,95674.91
2018-02-07T21:09:17.893Z,95672.31
2018-02-07T21:11:45.888Z,95666.95
2018-02-07T21:14:13.549Z,95666.35
2018-02-07T21:16:41.491Z,95668.64
2018-02-07T21:19:09.194Z,95661.37
2018-02-07T21:21:36.803Z,95665.80
2018-02-07T21:24:04.395Z,95660.48
2018-02-07T21:26:31.956Z,95665.12
2018-02-07T21:28:59.765Z,95660.68
2018-02-07T21:31:27.394Z,95655.92
2018-02-07T21:33:54.967Z,95647.81
2018-02-07T21:36:23.504Z,95649.89
2018-02-07T21:38:51.158Z,95652.14
2018-02-07T21:41:19.716Z,95658.00
2018-02-07T21:43:47.277Z,95647.59
2018-02-07T21:46:14.870Z,95651.14
2018-02-07T21:48:42.444Z,95651.98
2018-02-07T21:51:11.346Z,95656.67
2018-02-07T21:53:38.917Z,95656.80
2018-02-07T21:56:06.603Z,95660.81
2018-02-07T21:58:34.316Z,95655.83
2018-02-07T22:01:01.906Z,95650.91
2018-02-07T22:03:29.500Z,95651.71
2018-02-07T22:05:57.295Z,95649.14
2018-02-07T22:08:24.930Z,95652.39
2018-02-07T22:10:52.554Z,95651.98
2018-02-07T22:13:20.548Z,95651.34
2018-02-07T22:15:48.263Z,95653.72
2018-02-07T22:18:15.847Z,95649.87
2018-02-07T22:20:43.502Z,95654.06
2018-02-07T22:23:12.287Z,95649.02
2018-02-07T22:25:39.933Z,95658.00
2018-02-07T22:28:07.647Z,95660.29
2018-02-07T22:30:35.560Z,95661.66
2018-02-07T22:33:03.183Z,95661.11
2018-02-07T22:35:30.762Z,95662.01
2018-02-07T22:37:58.338Z,95662.86
2018-02-07T22:40:25.969Z,95667.06
2018-02-07T22:42:53.611Z,95665.03
2018-02-07T22:45:21.211Z,95665.92
2018-02-07T22:47:48.831Z,95667.97
2018-02-07T22:50:16.448Z,95664.11
2018-02-07T22:52:44.017Z,95665.38
2018-02-07T22:55:12.228Z,95662.99
2018-02-07T22:57:39.855Z,95663.86
2018-02-07T23:00:07.572Z,95659.23
2018-02-07T23:02:35.170Z,95672.73
2018-02-07T23:05:03.137Z,95669.44
2018-02-07T23:07:30.760Z,95671.25
2018-02-07T23:09:58.363Z,95673.23
2018-02-07T23:12:25.982Z,95671.55
2018-02-07T23:14:55.891Z,95670.79
2018-02-07T23:17:23.602Z,95669.23
2018-02-07T23:19:51.167Z,95681.61
2018-02-07T23:22:18.895Z,95678.09
2018-02-07T23:24:46.491Z,95682.16
2018-02-07T23:27:14.597Z,95679.86
2018-02-07T23:29:42.188Z,95684.45
2018-02-07T23:32:09.913Z,95687.99
2018-02-07T23:34:37.504Z,95689.71
2018-02-07T23:37:05.176Z,95687.56
2018-02-07T23:39:32.841Z,95685.89
2018-02-07T23:42:00.420Z,95690.49
2018-02-07T23:44:28.022Z,95682.09
2018-02-07T23:46:57.098Z,95682.88
2018-02-07T23:49:24.734Z,95684.12
2018-02-07T23:51:52.357Z,95686.28
2018-02-07T23:54:20.151Z,95687.84
2018-02-07T23:56:47.752Z,95686.09
2018-02-07T23:59:15.374Z,95687.13
